Time;durP1;ratioP1;P1;durP2;ratioP2;P2;SDS_P1;SDS_P2;PMS_P1;PMS_P2;Temp;Humidity;BMP_temperature;BMP_pressure;BME280_temperature;BME280_humidity;BME280_pressure;Samples;Min_cycle;Max_cycle;Signal;HPM_P1;HPM_P2
2021/03/24 00:04:10;;;;;;;7.70;5.82;;;;;;;;;;10320438;28;20044;-63
2021/03/24 00:09:09;;;;;;;8.30;6.97;;;;;;;;;;10320584;28;20524;-63
2021/03/24 00:14:07;;;;;;;9.32;8.23;;;;;;;;;;10319878;28;20275;-62
2021/03/24 00:19:05;;;;;;;7.15;6.35;;;;;;;;;;10318980;28;20064;-63
2021/03/24 00:24:02;;;;;;;6.43;5.82;;;;;;;;;;10319013;28;20040;-62
2021/03/24 00:28:59;;;;;;;8.77;7.50;;;;;;;;;;10318655;28;20088;-62
2021/03/24 00:33:57;;;;;;;7.97;6.90;;;;;;;;;;10318800;28;20079;-63
2021/03/24 00:38:55;;;;;;;8.40;7.60;;;;;;;;;;10318714;28;20040;-63
2021/03/24 00:43:52;;;;;;;8.63;6.95;;;;;;;;;;10318506;28;20044;-63
2021/03/24 00:48:49;;;;;;;8.15;6.45;;;;;;;;;;10318227;28;20076;-63
2021/03/24 00:53:47;;;;;;;7.43;6.22;;;;;;;;;;10318501;28;20076;-63
2021/03/24 00:58:45;;;;;;;7.32;6.22;;;;;;;;;;10318473;28;20520;-62
2021/03/24 01:03:44;;;;;;;5.85;5.25;;;;;;;;;;10317238;28;20498;-62
2021/03/24 01:08:41;;;;;;;5.88;5.47;;;;;;;;;;10317532;28;20044;-62
2021/03/24 01:13:39;;;;;;;6.57;5.97;;;;;;;;;;10317856;28;20087;-62
2021/03/24 01:18:36;;;;;;;6.35;5.75;;;;;;;;;;10317856;28;20041;-63
2021/03/24 01:23:34;;;;;;;6.65;5.53;;;;;;;;;;10317076;28;20040;-62
2021/03/24 01:28:31;;;;;;;5.68;5.05;;;;;;;;;;10316745;28;20506;-63
2021/03/24 01:33:35;;;;;;;4.85;4.32;;;;;;;;;;10316379;28;20713;-61
2021/03/24 01:38:32;;;;;;;8.02;4.97;;;;;;;;;;10316717;28;20076;-62
2021/03/24 01:43:30;;;;;;;5.40;4.75;;;;;;;;;;10316639;28;20041;-61
2021/03/24 01:48:27;;;;;;;6.13;4.75;;;;;;;;;;10316574;28;20052;-61
2021/03/24 01:53:26;;;;;;;6.40;5.28;;;;;;;;;;10316603;28;20048;-62
2021/03/24 01:58:23;;;;;;;5.68;4.90;;;;;;;;;;10316949;28;20087;-62
2021/03/24 02:03:22;;;;;;;5.20;4.70;;;;;;;;;;10316227;28;20044;-62
2021/03/24 02:08:20;;;;;;;5.45;4.50;;;;;;;;;;10316307;28;20047;-62
2021/03/24 02:13:22;;;;;;;6.55;5.05;;;;;;;;;;10315961;28;20437;-62
2021/03/24 02:18:21;;;;;;;11.98;7.55;;;;;;;;;;10316167;28;20057;-62
2021/03/24 02:23:26;;;;;;;11.77;6.60;;;;;;;;;;10316690;28;20588;-62
2021/03/24 02:28:25;;;;;;;15.30;7.90;;;;;;;;;;10316203;28;20083;-62
2021/03/24 02:33:27;;;;;;;7.45;5.35;;;;;;;;;;10316300;28;20091;-62
2021/03/24 02:38:25;;;;;;;8.93;6.63;;;;;;;;;;10315892;28;20072;-62
2021/03/24 02:43:23;;;;;;;20.77;11.10;;;;;;;;;;10319547;28;20530;-62
2021/03/24 02:48:22;;;;;;;22.38;10.63;;;;;;;;;;10322980;28;20041;-62
2021/03/24 02:53:24;;;;;;;19.85;10.02;;;;;;;;;;10323061;28;20048;-62
2021/03/24 02:58:21;;;;;;;8.52;5.95;;;;;;;;;;10322493;28;20056;-62
2021/03/24 03:03:23;;;;;;;7.97;5.70;;;;;;;;;;10322385;28;20478;-62
2021/03/24 03:08:23;;;;;;;13.35;8.93;;;;;;;;;;10322864;28;20055;-62
2021/03/24 03:13:23;;;;;;;10.48;7.25;;;;;;;;;;10321924;28;20427;-62
2021/03/24 03:18:22;;;;;;;12.95;8.63;;;;;;;;;;10322121;28;20114;-62
2021/03/24 03:23:21;;;;;;;7.60;5.07;;;;;;;;;;10321913;28;20045;-62
2021/03/24 03:28:19;;;;;;;33.80;18.13;;;;;;;;;;10321884;28;20063;-63
2021/03/24 03:33:18;;;;;;;10.73;5.45;;;;;;;;;;10321279;28;20517;-62
2021/03/24 03:38:17;;;;;;;10.50;5.47;;;;;;;;;;10321080;28;20103;-62
2021/03/24 03:43:16;;;;;;;8.20;4.78;;;;;;;;;;10321128;28;20090;-63
2021/03/24 03:48:16;;;;;;;4.85;3.97;;;;;;;;;;10321160;28;20044;-63
2021/03/24 03:53:19;;;;;;;5.35;3.80;;;;;;;;;;10320398;28;20086;-62
2021/03/24 03:58:27;;;;;;;5.80;3.80;;;;;;;;;;10320456;28;20079;-62
2021/03/24 04:03:28;;;;;;;6.00;3.75;;;;;;;;;;10319996;28;20052;-62
2021/03/24 04:08:29;;;;;;;8.88;4.47;;;;;;;;;;10319871;28;20044;-62
2021/03/24 04:13:27;;;;;;;7.72;4.43;;;;;;;;;;10319751;28;20041;-62
2021/03/24 04:18:28;;;;;;;8.73;5.25;;;;;;;;;;10319379;28;20072;-62
2021/03/24 04:23:27;;;;;;;13.90;8.65;;;;;;;;;;10320072;28;20049;-63
2021/03/24 04:28:32;;;;;;;8.60;6.13;;;;;;;;;;10319506;28;20061;-62
2021/03/24 04:33:30;;;;;;;6.57;5.47;;;;;;;;;;10318937;28;20746;-62
2021/03/24 04:38:31;;;;;;;14.95;8.07;;;;;;;;;;10318542;28;20068;-62
2021/03/24 04:43:31;;;;;;;14.10;9.40;;;;;;;;;;10318497;28;20048;-61
2021/03/24 04:48:32;;;;;;;12.30;8.40;;;;;;;;;;10318802;28;20071;-62
2021/03/24 04:53:31;;;;;;;15.52;11.10;;;;;;;;;;10318038;28;20080;-61
2021/03/24 04:58:31;;;;;;;17.92;10.77;;;;;;;;;;10318059;28;20080;-61
2021/03/24 05:03:30;;;;;;;14.82;11.25;;;;;;;;;;10316230;28;20079;-61
2021/03/24 05:08:31;;;;;;;15.50;10.93;;;;;;;;;;10318163;28;20076;-62
2021/03/24 05:13:30;;;;;;;13.50;8.30;;;;;;;;;;10317705;28;20051;-61
2021/03/24 05:18:29;;;;;;;12.25;9.05;;;;;;;;;;10316923;28;20828;-62
2021/03/24 05:23:27;;;;;;;45.05;27.00;;;;;;;;;;10317040;28;20043;-61
2021/03/24 05:28:35;;;;;;;23.85;19.40;;;;;;;;;;10316590;28;20507;-62
2021/03/24 05:33:38;;;;;;;11.15;9.07;;;;;;;;;;10317359;28;20079;-62
2021/03/24 05:38:36;;;;;;;10.55;8.40;;;;;;;;;;10316536;28;20082;-62
2021/03/24 05:43:47;;;;;;;13.00;10.48;;;;;;;;;;10316599;28;20048;-62
2021/03/24 05:48:56;;;;;;;16.63;9.85;;;;;;;;;;10316900;28;20052;-62
2021/03/24 05:54:08;;;;;;;46.83;34.45;;;;;;;;;;10316549;28;20076;-62
2021/03/24 05:59:15;;;;;;;26.52;19.38;;;;;;;;;;10316774;28;20072;-62
2021/03/24 06:04:19;;;;;;;51.67;31.45;;;;;;;;;;10316516;28;20053;-62
2021/03/24 06:09:29;;;;;;;21.45;14.93;;;;;;;;;;10316342;28;20421;-63
2021/03/24 06:14:42;;;;;;;15.57;9.15;;;;;;;;;;10316451;28;20080;-63
2021/03/24 06:19:46;;;;;;;32.95;16.35;;;;;;;;;;10322519;28;20051;-63
2021/03/24 06:24:50;;;;;;;13.10;8.65;;;;;;;;;;10324083;28;20068;-63
2021/03/24 06:29:55;;;;;;;16.58;11.60;;;;;;;;;;10324243;28;20565;-63
2021/03/24 06:35:19;;;;;;;29.98;19.77;;;;;;;;;;10323614;28;20079;-62
2021/03/24 06:40:27;;;;;;;10.63;7.47;;;;;;;;;;10323041;28;20087;-62
2021/03/24 06:45:30;;;;;;;8.57;6.50;;;;;;;;;;10323549;28;20067;-60
2021/03/24 06:50:40;;;;;;;13.13;6.45;;;;;;;;;;10323252;28;20056;-60
2021/03/24 06:55:57;;;;;;;21.67;12.30;;;;;;;;;;10323272;28;20080;-62
2021/03/24 07:01:13;;;;;;;12.40;9.55;;;;;;;;;;10322988;28;20505;-61
2021/03/24 07:06:20;;;;;;;9.73;7.43;;;;;;;;;;10323199;28;20048;-61
2021/03/24 07:11:33;;;;;;;11.18;8.27;;;;;;;;;;10322783;28;20044;-60
2021/03/24 07:16:58;;;;;;;13.02;8.57;;;;;;;;;;10322336;28;20506;-61
2021/03/24 07:22:10;;;;;;;12.93;7.57;;;;;;;;;;10321260;28;20084;-60
2021/03/24 07:27:23;;;;;;;11.80;7.95;;;;;;;;;;10298862;28;20051;-60
2021/03/24 07:32:26;;;;;;;16.42;10.43;;;;;;;;;;10320968;28;20091;-60
2021/03/24 07:37:37;;;;;;;15.27;9.77;;;;;;;;;;10320691;28;20072;-62
2021/03/24 07:42:59;;;;;;;8.07;6.18;;;;;;;;;;10321364;28;20080;-60
2021/03/24 07:48:11;;;;;;;14.98;9.80;;;;;;;;;;10310138;28;20076;-60
2021/03/24 07:53:27;;;;;;;9.15;6.93;;;;;;;;;;10319359;28;20048;-60
2021/03/24 07:58:31;;;;;;;7.50;5.03;;;;;;;;;;10313893;28;20095;-61
2021/03/24 08:03:42;;;;;;;15.75;10.88;;;;;;;;;;10320576;28;20045;-60
2021/03/24 08:08:48;;;;;;;14.00;10.13;;;;;;;;;;10319911;28;20489;-61
2021/03/24 08:13:52;;;;;;;8.23;6.53;;;;;;;;;;10320319;28;20056;-61
2021/03/24 08:18:58;;;;;;;10.35;6.22;;;;;;;;;;10319616;28;20083;-61
2021/03/24 08:24:12;;;;;;;7.78;6.35;;;;;;;;;;10319333;28;20048;-60
2021/03/24 08:29:14;;;;;;;11.43;10.10;;;;;;;;;;10319118;28;20083;-61
2021/03/24 08:34:27;;;;;;;11.65;10.02;;;;;;;;;;10319453;28;20045;-61
2021/03/24 08:39:42;;;;;;;8.30;5.68;;;;;;;;;;10317991;28;20056;-60
2021/03/24 08:44:40;;;;;;;;;;;;;;;;;;10319011;28;20044;-60
2021/03/24 08:49:41;;;;;;;6.47;4.82;;;;;;;;;;10318960;28;19928;-60
2021/03/24 08:54:48;;;;;;;8.60;6.22;;;;;;;;;;10318760;28;20477;-60
2021/03/24 08:59:50;;;;;;;8.10;7.22;;;;;;;;;;10318434;28;20076;-61
2021/03/24 09:04:58;;;;;;;6.07;5.50;;;;;;;;;;10318389;28;20047;-61
2021/03/24 09:10:10;;;;;;;15.98;9.80;;;;;;;;;;10317956;28;20140;-61
2021/03/24 09:15:11;;;;;;;17.75;11.85;;;;;;;;;;10317687;28;20079;-60
2021/03/24 09:20:23;;;;;;;16.58;8.80;;;;;;;;;;10317608;28;20041;-61
2021/03/24 09:25:25;;;;;;;29.25;17.70;;;;;;;;;;10317660;28;20053;-61
2021/03/24 09:30:45;;;;;;;20.80;15.38;;;;;;;;;;10317421;28;20063;-61
2021/03/24 09:35:46;;;;;;;30.48;19.35;;;;;;;;;;10317330;28;20084;-61
2021/03/24 09:40:45;;;;;;;21.75;13.32;;;;;;;;;;10317362;28;20072;-61
2021/03/24 09:45:43;;;;;;;11.38;8.13;;;;;;;;;;10317181;28;20052;-60
2021/03/24 09:50:43;;;;;;;10.45;7.97;;;;;;;;;;10316687;28;20076;-61
2021/03/24 09:55:41;;;;;;;8.63;6.18;;;;;;;;;;10316732;28;20540;-62
2021/03/24 10:00:42;;;;;;;11.10;8.02;;;;;;;;;;10316929;28;20072;-62
2021/03/24 10:05:45;;;;;;;17.40;11.88;;;;;;;;;;10316763;28;20083;-60
2021/03/24 10:10:43;;;;;;;54.75;37.78;;;;;;;;;;10316730;28;20079;-61
2021/03/24 10:15:43;;;;;;;16.77;12.10;;;;;;;;;;10316624;28;20090;-60
2021/03/24 10:20:43;;;;;;;21.40;12.43;;;;;;;;;;10316683;28;20252;-60
2021/03/24 10:25:42;;;;;;;10.77;8.07;;;;;;;;;;10316508;28;20048;-60
2021/03/24 10:30:42;;;;;;;21.38;15.75;;;;;;;;;;10315979;28;20056;-61
2021/03/24 10:35:42;;;;;;;13.05;8.65;;;;;;;;;;10315918;28;20080;-61
2021/03/24 10:40:44;;;;;;;14.00;8.48;;;;;;;;;;10315984;28;20064;-61
2021/03/24 10:45:45;;;;;;;8.25;6.95;;;;;;;;;;10315820;28;20441;-62
2021/03/24 10:50:48;;;;;;;7.85;5.82;;;;;;;;;;10315866;28;20040;-61
2021/03/24 10:55:55;;;;;;;16.67;10.20;;;;;;;;;;10315753;28;20080;-62
2021/03/24 11:01:00;;;;;;;7.15;4.97;;;;;;;;;;10315817;28;20040;-61
2021/03/24 11:06:01;;;;;;;5.10;4.70;;;;;;;;;;10321768;28;20036;-62
2021/03/24 11:11:05;;;;;;;10.32;7.60;;;;;;;;;;10322635;28;20055;-61
2021/03/24 11:16:05;;;;;;;12.02;8.48;;;;;;;;;;10322971;28;20072;-62
2021/03/24 11:21:06;;;;;;;16.13;12.20;;;;;;;;;;10322717;28;20048;-61
2021/03/24 11:26:27;;;;;;;20.52;14.18;;;;;;;;;;10321445;28;20044;-61
2021/03/24 11:31:27;;;;;;;16.05;10.82;;;;;;;;;;10320861;28;20528;-61
2021/03/24 11:36:27;;;;;;;48.00;24.98;;;;;;;;;;10321121;28;20079;-61
2021/03/24 11:41:26;;;;;;;36.40;20.77;;;;;;;;;;10321664;28;20036;-61
2021/03/24 11:46:30;;;;;;;18.52;10.40;;;;;;;;;;10321647;28;20036;-61
2021/03/24 11:51:36;;;;;;;175.93;96.00;;;;;;;;;;10321555;28;20516;-61
2021/03/24 11:56:45;;;;;;;17.65;10.23;;;;;;;;;;10319593;28;20048;-62
2021/03/24 12:01:49;;;;;;;28.27;16.98;;;;;;;;;;10321083;28;20068;-61
2021/03/24 12:06:53;;;;;;;20.17;12.95;;;;;;;;;;10321000;28;20079;-61
2021/03/24 12:11:51;;;;;;;16.55;11.32;;;;;;;;;;10320399;28;20433;-62
2021/03/24 12:16:50;;;;;;;31.58;17.55;;;;;;;;;;10319869;28;20075;-61
2021/03/24 12:21:53;;;;;;;13.55;8.10;;;;;;;;;;10319428;28;20059;-61
2021/03/24 12:26:50;;;;;;;30.55;19.58;;;;;;;;;;10319936;28;20048;-62
2021/03/24 12:31:48;;;;;;;15.18;10.50;;;;;;;;;;10319298;28;20075;-62
2021/03/24 12:36:52;;;;;;;17.63;10.65;;;;;;;;;;10319540;28;20077;-62
2021/03/24 12:41:50;;;;;;;11.00;7.97;;;;;;;;;;10319401;28;20053;-62
2021/03/24 12:46:52;;;;;;;23.65;16.45;;;;;;;;;;10319498;28;20056;-62
2021/03/24 12:51:54;;;;;;;15.05;10.13;;;;;;;;;;10318725;28;20132;-62
2021/03/24 12:57:05;;;;;;;12.88;11.18;;;;;;;;;;10318499;28;20048;-62
2021/03/24 13:02:15;;;;;;;22.42;10.98;;;;;;;;;;10318367;28;20052;-62
2021/03/24 13:07:33;;;;;;;29.77;20.92;;;;;;;;;;10318095;28;20048;-62
2021/03/24 13:12:34;;;;;;;18.42;14.02;;;;;;;;;;10317253;28;20052;-62
2021/03/24 13:17:37;;;;;;;21.23;14.63;;;;;;;;;;10317300;28;20076;-62
2021/03/24 13:22:39;;;;;;;16.50;8.75;;;;;;;;;;10317064;28;20044;-62
2021/03/24 13:27:59;;;;;;;15.93;11.38;;;;;;;;;;10316005;28;20486;-62
2021/03/24 13:33:00;;;;;;;45.63;26.65;;;;;;;;;;10316845;28;20045;-62
2021/03/24 13:38:02;;;;;;;40.67;23.38;;;;;;;;;;10317333;28;20084;-62
2021/03/24 13:43:00;;;;;;;35.28;24.45;;;;;;;;;;10316685;28;20036;-62
2021/03/24 13:48:02;;;;;;;29.75;22.13;;;;;;;;;;10317201;28;20468;-62
2021/03/24 13:53:02;;;;;;;23.60;14.68;;;;;;;;;;10316484;28;20048;-62
2021/03/24 13:58:08;;;;;;;17.27;12.35;;;;;;;;;;10316347;28;20131;-62
2021/03/24 14:03:15;;;;;;;62.95;28.70;;;;;;;;;;10316457;28;20091;-62
2021/03/24 14:08:18;;;;;;;25.45;22.73;;;;;;;;;;10316683;28;20051;-62
2021/03/24 14:13:20;;;;;;;54.05;34.28;;;;;;;;;;10316096;28;20055;-62
2021/03/24 14:18:20;;;;;;;20.35;12.55;;;;;;;;;;10315992;28;20502;-62
2021/03/24 14:23:21;;;;;;;20.63;13.68;;;;;;;;;;10316285;28;20040;-62
2021/03/24 14:28:22;;;;;;;41.15;30.02;;;;;;;;;;10316221;28;20422;-62
2021/03/24 14:33:33;;;;;;;41.10;35.45;;;;;;;;;;10316052;28;20044;-62
2021/03/24 14:38:39;;;;;;;52.30;32.80;;;;;;;;;;10318589;28;20076;-61
2021/03/24 14:43:45;;;;;;;24.38;17.40;;;;;;;;;;10323849;28;20045;-61
2021/03/24 14:48:51;;;;;;;19.38;14.65;;;;;;;;;;10323278;28;20052;-62
2021/03/24 14:53:49;;;;;;;44.50;22.85;;;;;;;;;;10323278;28;20537;-61
2021/03/24 14:59:00;;;;;;;50.42;30.95;;;;;;;;;;10323337;28;20524;-62
2021/03/24 15:04:10;;;;;;;70.72;44.40;;;;;;;;;;10322583;28;20041;-64
2021/03/24 15:09:10;;;;;;;29.73;21.25;;;;;;;;;;10322678;28;20494;-63
2021/03/24 15:14:28;;;;;;;34.92;21.08;;;;;;;;;;10322899;28;20052;-62
2021/03/24 15:19:32;;;;;;;47.17;27.05;;;;;;;;;;10318783;28;20087;-63
2021/03/24 15:24:39;;;;;;;129.05;71.57;;;;;;;;;;10321906;28;20051;-63
2021/03/24 15:29:39;;;;;;;107.00;56.53;;;;;;;;;;10321511;28;20060;-63
2021/03/24 15:34:42;;;;;;;78.63;41.47;;;;;;;;;;10321976;28;20516;-63
2021/03/24 15:39:51;;;;;;;62.53;38.58;;;;;;;;;;10320556;28;20088;-62
2021/03/24 15:44:57;;;;;;;78.40;45.58;;;;;;;;;;10321577;28;20045;-62
2021/03/24 15:50:27;;;;;;;59.85;34.80;;;;;;;;;;10320428;28;20054;-63
2021/03/24 15:55:32;;;;;;;64.47;39.15;;;;;;;;;;10233775;28;20085;-63
2021/03/24 16:00:41;;;;;;;58.92;34.38;;;;;;;;;;10300151;28;20486;-63
2021/03/24 16:05:45;;;;;;;59.47;40.20;;;;;;;;;;10320678;28;20048;-62
2021/03/24 16:10:46;;;;;;;52.28;32.90;;;;;;;;;;10318924;28;20505;-63
2021/03/24 16:15:53;;;;;;;25.80;20.88;;;;;;;;;;10318981;28;20080;-63
2021/03/24 16:21:03;;;;;;;21.70;17.10;;;;;;;;;;10320427;28;20516;-63
2021/03/24 16:26:04;;;;;;;47.35;31.67;;;;;;;;;;10320034;28;20582;-62
2021/03/24 16:31:36;;;;;;;85.78;58.25;;;;;;;;;;10318723;28;20091;-62
2021/03/24 16:37:06;;;;;;;39.28;26.05;;;;;;;;;;10318218;28;20087;-62
2021/03/24 17:09:39;;;;;;;28.90;20.83;;;;;;;;;;11330470;23;20347;-59
2021/03/24 17:53:39;;;;;;;51.53;29.08;;;;;;;;;;10674888;23;20272;-64
2021/03/24 17:58:46;;;;;;;57.53;41.50;;;;;;;;;;10076876;28;20504;-61
2021/03/24 18:03:47;;;;;;;70.90;46.75;;;;;;;;;;10057813;29;20043;-63
2021/03/24 18:08:47;;;;;;;73.53;46.97;;;;;;;;;;10076793;28;20054;-61
2021/03/24 18:13:54;;;;;;;49.03;30.92;;;;;;;;;;10078573;28;20082;-63
2021/03/24 18:19:07;;;;;;;99.97;53.78;;;;;;;;;;10083589;28;20086;-63
2021/03/24 18:24:06;;;;;;;103.95;63.53;;;;;;;;;;10083106;28;20054;-63
2021/03/24 18:29:05;;;;;;;99.80;55.30;;;;;;;;;;10084393;28;20043;-64
2021/03/24 18:34:12;;;;;;;85.70;47.97;;;;;;;;;;10083870;28;20067;-64
2021/03/24 18:39:17;;;;;;;110.13;64.43;;;;;;;;;;10083894;28;20177;-64
2021/03/24 18:44:16;;;;;;;62.92;41.20;;;;;;;;;;10083844;28;20047;-63
2021/03/24 18:49:19;;;;;;;31.80;24.88;;;;;;;;;;10081827;28;20086;-64
2021/03/24 18:54:29;;;;;;;100.45;69.68;;;;;;;;;;10082892;28;20081;-65
2021/03/24 18:59:29;;;;;;;112.65;71.30;;;;;;;;;;10082855;28;20094;-59
2021/03/24 19:04:28;;;;;;;72.80;38.47;;;;;;;;;;10082972;28;20039;-59
2021/03/24 19:09:32;;;;;;;63.45;39.20;;;;;;;;;;10082649;28;20079;-60
2021/03/24 19:14:37;;;;;;;45.05;28.88;;;;;;;;;;10081754;28;20051;-60
2021/03/24 19:19:44;;;;;;;74.45;47.83;;;;;;;;;;10081915;28;20087;-60
2021/03/24 19:24:42;;;;;;;50.22;31.27;;;;;;;;;;10082366;28;20039;-60
2021/03/24 19:29:41;;;;;;;39.97;26.08;;;;;;;;;;10082229;28;20047;-60
2021/03/24 19:34:38;;;;;;;40.42;26.45;;;;;;;;;;10081527;28;20523;-61
2021/03/24 19:39:36;;;;;;;65.28;37.88;;;;;;;;;;10080998;28;20085;-60
2021/03/24 19:44:35;;;;;;;72.38;40.45;;;;;;;;;;10080770;28;20054;-60
2021/03/24 19:49:34;;;;;;;66.20;38.17;;;;;;;;;;10079776;28;20070;-61
2021/03/24 19:54:33;;;;;;;80.45;45.22;;;;;;;;;;10079310;28;20089;-60
2021/03/24 19:59:34;;;;;;;137.32;67.55;;;;;;;;;;10062454;29;20512;-61
2021/03/24 20:04:34;;;;;;;65.80;38.70;;;;;;;;;;10080477;28;20079;-61
2021/03/24 20:09:46;;;;;;;76.90;44.80;;;;;;;;;;10062480;29;20050;-59
2021/03/24 20:14:46;;;;;;;140.43;78.72;;;;;;;;;;10080601;28;20456;-61
2021/03/24 20:19:46;;;;;;;137.18;78.65;;;;;;;;;;10080409;28;20086;-62
2021/03/24 20:24:43;;;;;;;60.63;40.58;;;;;;;;;;10079509;28;20087;-61
2021/03/24 20:29:41;;;;;;;56.40;34.05;;;;;;;;;;10080026;28;20051;-61
2021/03/24 20:34:44;;;;;;;60.72;35.42;;;;;;;;;;10079186;28;20083;-60
2021/03/24 20:39:54;;;;;;;39.15;24.83;;;;;;;;;;10079526;28;20504;-61
2021/03/24 20:44:54;;;;;;;54.53;33.65;;;;;;;;;;10078546;29;20074;-60
2021/03/24 20:49:52;;;;;;;124.38;82.07;;;;;;;;;;10077673;29;20074;-61
2021/03/24 20:54:50;;;;;;;105.53;61.53;;;;;;;;;;10077975;29;20071;-59
2021/03/24 20:59:48;;;;;;;76.50;48.92;;;;;;;;;;10078791;28;20467;-60
2021/03/24 21:04:45;;;;;;;126.05;70.18;;;;;;;;;;10077701;28;20071;-61
2021/03/24 21:09:43;;;;;;;86.05;48.03;;;;;;;;;;10078468;28;20071;-60
2021/03/24 21:14:41;;;;;;;49.88;32.47;;;;;;;;;;10077389;28;20418;-60
2021/03/24 21:19:38;;;;;;;62.00;40.53;;;;;;;;;;10077298;28;20078;-60
2021/03/24 21:24:36;;;;;;;65.72;42.85;;;;;;;;;;10078237;28;20035;-60
2021/03/24 21:29:33;;;;;;;26.27;17.33;;;;;;;;;;10077990;28;20523;-59
2021/03/24 21:34:32;;;;;;;29.33;21.25;;;;;;;;;;10077123;28;20452;-61
2021/03/24 21:39:30;;;;;;;19.27;14.80;;;;;;;;;;10076580;28;20480;-60
2021/03/24 21:44:29;;;;;;;67.00;41.38;;;;;;;;;;10076614;28;20055;-60
2021/03/24 21:49:29;;;;;;;28.63;20.85;;;;;;;;;;10076607;28;20044;-60
2021/03/24 21:54:27;;;;;;;16.48;13.35;;;;;;;;;;10075723;28;20505;-60
2021/03/24 21:59:26;;;;;;;22.77;14.07;;;;;;;;;;10076334;28;20531;-60
2021/03/24 22:04:25;;;;;;;53.63;28.73;;;;;;;;;;10076291;28;20097;-60
2021/03/24 22:09:22;;;;;;;19.95;17.35;;;;;;;;;;10075834;28;20469;-61
2021/03/24 22:14:40;;;;;;;16.05;12.90;;;;;;;;;;10075657;28;20075;-61
2021/03/24 22:19:39;;;;;;;15.90;12.70;;;;;;;;;;10068841;28;20697;-61
2021/03/24 22:24:36;;;;;;;19.88;16.30;;;;;;;;;;10076886;28;20082;-59
2021/03/24 22:29:37;;;;;;;22.83;16.73;;;;;;;;;;10075827;28;20051;-59
2021/03/24 22:34:36;;;;;;;15.15;13.35;;;;;;;;;;10076275;28;20075;-60
2021/03/24 22:39:37;;;;;;;16.40;13.52;;;;;;;;;;10075525;28;20086;-59
2021/03/24 22:44:36;;;;;;;15.75;12.32;;;;;;;;;;10075342;28;20051;-59
2021/03/24 22:49:38;;;;;;;16.30;12.70;;;;;;;;;;10076334;28;20075;-59
2021/03/24 22:54:36;;;;;;;17.23;12.98;;;;;;;;;;10074598;28;20090;-59
2021/03/24 22:59:35;;;;;;;15.57;11.63;;;;;;;;;;10077346;28;20094;-60
2021/03/24 23:04:36;;;;;;;11.93;10.00;;;;;;;;;;10081934;28;20044;-60
2021/03/24 23:09:34;;;;;;;11.50;10.18;;;;;;;;;;10082128;28;20083;-61
2021/03/24 23:14:35;;;;;;;24.02;16.48;;;;;;;;;;10082630;28;20071;-61
2021/03/24 23:19:34;;;;;;;22.73;15.05;;;;;;;;;;10082672;28;20082;-59
2021/03/24 23:24:32;;;;;;;19.10;14.48;;;;;;;;;;10081534;28;20079;-60
2021/03/24 23:29:29;;;;;;;19.98;16.20;;;;;;;;;;10081794;28;20078;-59
2021/03/24 23:34:29;;;;;;;22.30;15.43;;;;;;;;;;10081106;28;20086;-60
2021/03/24 23:39:26;;;;;;;17.00;12.85;;;;;;;;;;10081017;28;20082;-59
2021/03/24 23:44:23;;;;;;;25.63;18.30;;;;;;;;;;10080732;28;20051;-62
2021/03/24 23:49:22;;;;;;;18.50;14.80;;;;;;;;;;10081018;28;20078;-61
2021/03/24 23:54:21;;;;;;;25.25;18.67;;;;;;;;;;10079786;28;20082;-59
2021/03/24 23:59:20;;;;;;;10.88;9.15;;;;;;;;;;10080085;28;20090;-60
